createdAt,value
2023-02-17T00:02:17.721Z,97866.81
2023-02-17T00:04:45.253Z,97864.38
2023-02-17T00:07:13.357Z,97863.72
2023-02-17T00:09:40.873Z,97863.97
2023-02-17T00:12:08.782Z,97850.75
2023-02-17T00:14:36.674Z,97855.97
2023-02-17T00:17:04.239Z,97849.78
2023-02-17T00:19:33.170Z,97858.47
2023-02-17T00:22:02.082Z,97855.22
2023-02-17T00:24:32.040Z,97856.13
2023-02-17T00:27:00.309Z,97855.56
2023-02-17T00:29:27.968Z,97859.16
2023-02-17T00:31:56.906Z,97863.53
2023-02-17T00:34:24.723Z,97868.88
2023-02-17T00:36:53.637Z,97873.34
2023-02-17T00:39:21.350Z,97871.50
2023-02-17T00:41:48.897Z,97875.06
2023-02-17T00:44:18.245Z,97872.81
2023-02-17T00:46:46.809Z,97869.25
2023-02-17T00:49:17.508Z,97869.88
2023-02-17T00:51:45.175Z,97867.28
2023-02-17T00:54:14.570Z,97870.06
2023-02-17T00:56:42.514Z,97870.22
2023-02-17T00:59:11.279Z,97867.56
2023-02-17T01:01:39.750Z,97865.13
2023-02-17T01:04:07.560Z,97866.81
2023-02-17T01:06:36.947Z,97861.69
2023-02-17T01:09:06.549Z,97857.19
2023-02-17T01:11:37.344Z,97847.63
2023-02-17T01:14:06.868Z,97844.22
2023-02-17T01:16:37.425Z,97852.00
2023-02-17T01:19:07.310Z,97844.22
2023-02-17T01:21:35.013Z,97846.63
2023-02-17T01:24:05.256Z,97836.88
2023-02-17T01:26:35.907Z,97842.66
2023-02-17T01:29:04.514Z,97834.78
2023-02-17T01:31:32.236Z,97838.13
2023-02-17T01:34:01.558Z,97841.47
2023-02-17T01:36:29.468Z,97838.72
2023-02-17T01:38:57.044Z,97840.31
2023-02-17T01:41:27.641Z,97833.34
2023-02-17T01:44:12.348Z,97831.97
2023-02-17T01:46:41.321Z,97826.13
2023-02-17T01:49:16.817Z,97822.78
2023-02-17T01:51:45.268Z,97816.41
2023-02-17T01:54:15.478Z,97807.38
2023-02-17T01:56:46.137Z,97807.56
2023-02-17T01:59:18.675Z,97805.81
2023-02-17T02:01:46.760Z,97814.06
2023-02-17T02:04:16.530Z,97803.50
2023-02-17T02:06:44.923Z,97792.09
2023-02-17T02:09:18.295Z,97799.66
2023-02-17T02:11:45.938Z,97787.41
2023-02-17T02:14:14.953Z,97786.28
2023-02-17T02:16:46.815Z,97774.88
2023-02-17T02:19:31.498Z,97780.81
2023-02-17T02:22:19.606Z,97771.28
2023-02-17T02:24:57.073Z,97764.03
2023-02-17T02:27:52.642Z,97760.13
2023-02-17T02:30:53.384Z,97770.16
2023-02-17T02:33:26.889Z,97753.63
2023-02-17T02:35:59.553Z,97752.38
2023-02-17T02:38:31.341Z,97742.25
2023-02-17T02:41:05.589Z,97753.66
2023-02-17T02:43:33.585Z,97758.13
2023-02-17T02:46:01.116Z,97750.13
2023-02-17T02:48:30.093Z,97748.53
2023-02-17T02:51:09.214Z,97749.66
2023-02-17T02:54:00.143Z,97747.41
2023-02-17T02:56:36.505Z,97751.50
2023-02-17T02:59:11.804Z,97749.47
2023-02-17T03:01:46.319Z,97750.09
2023-02-17T03:04:19.609Z,97741.38
2023-02-17T03:06:49.757Z,97740.44
2023-02-17T03:09:21.372Z,97724.97
2023-02-17T03:11:49.155Z,97740.06
2023-02-17T03:14:19.357Z,97739.31
2023-02-17T03:16:47.235Z,97740.53
2023-02-17T03:19:18.795Z,97727.44
2023-02-17T03:21:49.569Z,97730.03
2023-02-17T03:24:17.910Z,97728.38
2023-02-17T03:26:45.525Z,97737.66
2023-02-17T03:29:13.666Z,97719.53
2023-02-17T03:31:41.388Z,97720.19
2023-02-17T03:34:09.418Z,97714.25
2023-02-17T03:36:38.302Z,97715.91
2023-02-17T03:39:05.843Z,97717.59
2023-02-17T03:41:33.652Z,97729.25
2023-02-17T03:44:01.840Z,97719.69
2023-02-17T03:46:29.585Z,97717.94
2023-02-17T03:48:57.282Z,97723.06
2023-02-17T03:51:25.664Z,97727.94
2023-02-17T03:53:54.659Z,97722.84
2023-02-17T03:56:22.544Z,97728.06
2023-02-17T03:58:50.127Z,97733.88
2023-02-17T04:01:18.322Z,97729.53
2023-02-17T04:03:46.890Z,97738.69
2023-02-17T04:06:14.941Z,97734.22
2023-02-17T04:08:42.779Z,97734.03
2023-02-17T04:11:12.109Z,97731.34
2023-02-17T04:13:40.034Z,97744.78
2023-02-17T04:16:08.922Z,97743.13
2023-02-17T04:18:37.155Z,97743.34
2023-02-17T04:21:05.414Z,97745.94
2023-02-17T04:23:32.989Z,97744.13
2023-02-17T04:26:00.831Z,97742.25
2023-02-17T04:28:30.807Z,97737.47
2023-02-17T04:31:00.106Z,97730.09
2023-02-17T04:33:27.907Z,97726.97
2023-02-17T04:35:59.501Z,97727.56
2023-02-17T04:38:28.299Z,97725.63
2023-02-17T04:40:56.558Z,97718.94
2023-02-17T04:43:24.889Z,97728.97
2023-02-17T04:45:54.685Z,97719.41
2023-02-17T04:48:23.345Z,97718.75
2023-02-17T04:50:51.224Z,97714.56
2023-02-17T04:53:20.602Z,97716.22
2023-02-17T04:55:49.645Z,97712.59
2023-02-17T04:58:17.227Z,97709.06
2023-02-17T05:00:44.848Z,97706.19
2023-02-17T05:03:13.778Z,97713.78
2023-02-17T05:05:41.372Z,97709.84
2023-02-17T05:08:09.508Z,97702.53
2023-02-17T05:10:37.078Z,97697.84
2023-02-17T05:13:04.618Z,97704.53
2023-02-17T05:15:34.728Z,97702.75
2023-02-17T05:18:02.557Z,97713.06
2023-02-17T05:20:31.474Z,97708.59
2023-02-17T05:22:59.000Z,97710.16
2023-02-17T05:25:26.529Z,97694.84
2023-02-17T05:27:54.121Z,97706.72
2023-02-17T05:30:21.867Z,97706.91
2023-02-17T05:32:49.487Z,97703.59
2023-02-17T05:35:17.145Z,97698.78
2023-02-17T05:37:46.278Z,97696.31
2023-02-17T05:40:14.151Z,97695.22
2023-02-17T05:42:41.792Z,97701.50
2023-02-17T05:45:09.744Z,97701.38
2023-02-17T05:47:37.555Z,97703.69
2023-02-17T05:50:05.972Z,97702.09
2023-02-17T05:52:34.591Z,97704.00
2023-02-17T05:55:04.725Z,97708.19
2023-02-17T05:57:32.821Z,97709.53
2023-02-17T06:00:00.376Z,97703.94
2023-02-17T06:02:27.957Z,97702.78
2023-02-17T06:04:55.629Z,97700.91
2023-02-17T06:07:23.788Z,97700.91
2023-02-17T06:09:51.350Z,97682.34
2023-02-17T06:12:20.226Z,97697.25
2023-02-17T06:14:47.746Z,97691.81
2023-02-17T06:17:15.293Z,97694.63
2023-02-17T06:19:42.859Z,97683.19
2023-02-17T06:22:10.438Z,97679.31
2023-02-17T06:24:37.969Z,97679.22
2023-02-17T06:27:05.608Z,97681.53
2023-02-17T06:29:34.760Z,97680.66
2023-02-17T06:32:02.434Z,97682.25
2023-02-17T06:34:30.128Z,97675.47
2023-02-17T06:36:57.797Z,97676.31
2023-02-17T06:39:25.430Z,97679.84
2023-02-17T06:41:53.068Z,97681.53
2023-02-17T06:44:20.805Z,97666.41
2023-02-17T06:46:49.722Z,97684.22
2023-02-17T06:49:17.339Z,97684.00
2023-02-17T06:51:44.980Z,97690.78
2023-02-17T06:54:12.544Z,97694.00
2023-02-17T06:56:40.119Z,97691.00
2023-02-17T06:59:07.637Z,97687.13
2023-02-17T07:01:35.190Z,97692.97
2023-02-17T07:04:04.123Z,97697.00
2023-02-17T07:06:31.761Z,97693.16
2023-02-17T07:08:59.337Z,97698.75
2023-02-17T07:11:31.243Z,97687.72
2023-02-17T07:13:58.827Z,97690.50
2023-02-17T07:16:26.429Z,97686.94
2023-02-17T07:18:53.945Z,97703.41
2023-02-17T07:21:22.828Z,97702.25
2023-02-17T07:23:50.412Z,97695.75
2023-02-17T07:26:17.963Z,97692.81
2023-02-17T07:28:45.590Z,97695.72
2023-02-17T07:31:14.583Z,97686.84
2023-02-17T07:33:43.092Z,97691.06
2023-02-17T07:36:12.846Z,97689.56
2023-02-17T07:38:42.324Z,97694.69
2023-02-17T07:41:11.629Z,97686.31
2023-02-17T07:43:39.429Z,97685.41
2023-02-17T07:46:08.594Z,97684.25
2023-02-17T07:48:36.786Z,97681.44
2023-02-17T07:51:07.821Z,97670.59
2023-02-17T07:53:35.836Z,97683.09
2023-02-17T07:56:05.932Z,97680.63
2023-02-17T07:58:33.842Z,97674.81
2023-02-17T08:01:06.816Z,97681.25
2023-02-17T08:03:34.386Z,97678.50
2023-02-17T08:06:02.263Z,97670.06
2023-02-17T08:08:47.417Z,97671.63
2023-02-17T08:11:35.458Z,97674.22
2023-02-17T08:14:03.220Z,97677.22
2023-02-17T08:16:30.774Z,97676.47
2023-02-17T08:18:58.682Z,97668.28
2023-02-17T08:21:28.061Z,97669.34
2023-02-17T08:23:56.087Z,97667.41
2023-02-17T08:26:25.245Z,97668.22
2023-02-17T08:28:52.802Z,97660.53
2023-02-17T08:31:22.921Z,97652.88
2023-02-17T08:33:50.843Z,97652.97
2023-02-17T08:36:20.751Z,97654.50
2023-02-17T08:38:50.338Z,97661.59
2023-02-17T08:41:21.337Z,97649.00
2023-02-17T08:43:50.841Z,97661.78
2023-02-17T08:46:19.425Z,97673.78
2023-02-17T08:48:47.540Z,97680.47
2023-02-17T08:51:16.070Z,97672.81
2023-02-17T08:53:44.225Z,97662.25
2023-02-17T08:56:13.039Z,97660.47
2023-02-17T08:58:40.658Z,97662.84
2023-02-17T09:01:09.601Z,97665.47
2023-02-17T09:03:38.388Z,97664.56
2023-02-17T09:06:07.639Z,97655.63
2023-02-17T09:08:35.634Z,97653.63
2023-02-17T09:11:03.654Z,97652.53
2023-02-17T09:13:31.186Z,97653.81
2023-02-17T09:15:59.290Z,97649.66
2023-02-17T09:18:28.361Z,97648.31
2023-02-17T09:20:56.033Z,97661.25
2023-02-17T09:23:23.585Z,97647.91
2023-02-17T09:25:51.100Z,97653.22
2023-02-17T09:28:18.670Z,97649.78
2023-02-17T09:30:46.342Z,97646.50
2023-02-17T09:33:13.996Z,97643.94
2023-02-17T09:35:44.419Z,97636.34
2023-02-17T09:38:12.200Z,97623.06
2023-02-17T09:40:44.190Z,97637.84
2023-02-17T09:43:13.427Z,97637.16
2023-02-17T09:45:41.258Z,97648.22
2023-02-17T09:48:11.195Z,97653.78
2023-02-17T09:50:45.567Z,97652.25
2023-02-17T09:53:17.185Z,97658.06
2023-02-17T09:55:48.260Z,97661.38
2023-02-17T09:58:19.271Z,97651.97
2023-02-17T10:00:49.211Z,97644.78
2023-02-17T10:03:18.586Z,97640.50
2023-02-17T10:05:52.699Z,97643.13
2023-02-17T10:08:23.412Z,97642.38
2023-02-17T10:10:55.781Z,97645.28
2023-02-17T10:13:24.931Z,97635.63
2023-02-17T10:15:54.353Z,97637.13
2023-02-17T10:18:26.447Z,97641.00
2023-02-17T10:20:59.756Z,97634.09
2023-02-17T10:23:29.120Z,97640.13
2023-02-17T10:26:09.435Z,97641.38
2023-02-17T10:28:49.092Z,97639.53
2023-02-17T10:31:23.381Z,97637.22
2023-02-17T10:33:56.880Z,97641.22
2023-02-17T10:36:31.767Z,97640.22
2023-02-17T10:39:03.056Z,97644.22
2023-02-17T10:41:35.189Z,97633.97
2023-02-17T10:44:04.348Z,97636.38
2023-02-17T10:46:32.515Z,97626.03
2023-02-17T10:49:00.441Z,97620.78
2023-02-17T10:51:31.052Z,97618.16
2023-02-17T10:54:01.427Z,97617.19
2023-02-17T10:56:34.483Z,97614.06
2023-02-17T10:59:06.397Z,97625.50
2023-02-17T11:01:34.317Z,97616.31
2023-02-17T11:04:03.660Z,97603.13
2023-02-17T11:06:33.496Z,97608.09
2023-02-17T11:09:03.269Z,97592.44
2023-02-17T11:11:32.277Z,97599.22
2023-02-17T11:14:10.794Z,97594.25
2023-02-17T11:16:41.076Z,97580.91
2023-02-17T11:19:21.289Z,97597.44
2023-02-17T11:21:52.006Z,97589.28
2023-02-17T11:24:19.743Z,97578.13
2023-02-17T11:26:57.133Z,97573.19
2023-02-17T11:29:25.087Z,97570.53
2023-02-17T11:31:57.269Z,97563.31
2023-02-17T11:34:27.797Z,97563.00
2023-02-17T11:37:01.727Z,97557.03
2023-02-17T11:39:29.322Z,97554.06
2023-02-17T11:41:57.651Z,97557.22
2023-02-17T11:44:26.540Z,97552.59
2023-02-17T11:47:01.588Z,97551.28
2023-02-17T11:49:55.461Z,97545.00
2023-02-17T11:52:36.093Z,97555.06
2023-02-17T11:55:14.725Z,97553.41
2023-02-17T11:57:45.551Z,97547.31
2023-02-17T12:00:19.350Z,97543.81
2023-02-17T12:03:03.454Z,97553.91
2023-02-17T12:05:36.519Z,97561.50
2023-02-17T12:08:14.876Z,97552.75
2023-02-17T12:10:50.942Z,97549.59
2023-02-17T12:13:28.728Z,97545.16
2023-02-17T12:16:07.033Z,97544.97
2023-02-17T12:18:42.879Z,97536.06
2023-02-17T12:21:15.104Z,97534.75
2023-02-17T12:24:01.864Z,97526.66
2023-02-17T12:26:37.461Z,97520.56
2023-02-17T12:29:16.824Z,97516.59
2023-02-17T12:31:57.766Z,97520.38
2023-02-17T12:34:31.091Z,97517.91
2023-02-17T12:36:59.745Z,97520.56
2023-02-17T12:39:32.640Z,97519.88
2023-02-17T12:42:02.715Z,97516.25
2023-02-17T12:44:31.628Z,97516.72
2023-02-17T12:47:01.666Z,97523.50
2023-02-17T12:49:35.447Z,97513.09
2023-02-17T12:52:07.573Z,97525.63
2023-02-17T12:54:41.784Z,97534.75
2023-02-17T12:57:15.388Z,97521.34
2023-02-17T12:59:43.919Z,97518.53
2023-02-17T13:02:13.353Z,97525.81
2023-02-17T13:04:42.160Z,97523.03
2023-02-17T13:07:22.714Z,97536.25
2023-02-17T13:09:52.542Z,97529.78
2023-02-17T13:12:34.484Z,97529.63
2023-02-17T13:15:03.399Z,97536.25
2023-02-17T13:17:33.437Z,97538.03
2023-02-17T13:20:07.892Z,97541.84
2023-02-17T13:22:35.742Z,97547.78
2023-02-17T13:25:04.986Z,97540.69
2023-02-17T13:27:34.521Z,97543.34
2023-02-17T13:30:04.273Z,97532.91
2023-02-17T13:32:33.982Z,97530.47
2023-02-17T13:35:05.652Z,97532.78
2023-02-17T13:37:41.567Z,97527.97
2023-02-17T13:40:35.786Z,97540.34
2023-02-17T13:43:12.293Z,97542.84
2023-02-17T13:45:42.274Z,97541.00
2023-02-17T13:48:15.894Z,97534.06
2023-02-17T13:50:47.918Z,97536.72
2023-02-17T13:53:25.943Z,97550.44
2023-02-17T13:55:56.721Z,97542.31
2023-02-17T13:58:27.899Z,97546.94
2023-02-17T14:00:56.382Z,97541.53
2023-02-17T14:03:25.594Z,97552.41
2023-02-17T14:05:54.539Z,97549.78
2023-02-17T14:08:28.159Z,97548.44
2023-02-17T14:10:57.554Z,97550.75
2023-02-17T14:13:25.595Z,97544.97
2023-02-17T14:15:55.936Z,97541.66
2023-02-17T14:18:31.733Z,97530.09
2023-02-17T14:21:05.887Z,97516.75
2023-02-17T14:23:45.630Z,97506.97
2023-02-17T14:26:25.607Z,97489.16
2023-02-17T14:28:54.768Z,97497.91
2023-02-17T14:31:23.491Z,97509.31
2023-02-17T14:34:00.213Z,97506.50
2023-02-17T14:36:34.255Z,97505.69
2023-02-17T14:39:02.611Z,97507.50
2023-02-17T14:41:31.681Z,97497.72
2023-02-17T14:44:00.714Z,97495.41
2023-02-17T14:46:29.127Z,97491.44
2023-02-17T14:48:56.901Z,97490.09
2023-02-17T14:51:25.829Z,97493.53
2023-02-17T14:53:53.864Z,97491.41
2023-02-17T14:56:25.383Z,97499.50
2023-02-17T14:58:54.990Z,97492.44
2023-02-17T15:01:24.561Z,97494.88
2023-02-17T15:03:53.022Z,97498.53
2023-02-17T15:06:22.537Z,97499.53
2023-02-17T15:08:50.440Z,97476.91
2023-02-17T15:11:21.051Z,97479.38
2023-02-17T15:13:48.610Z,97466.81
2023-02-17T15:16:17.473Z,97471.09
2023-02-17T15:18:45.095Z,97475.91
2023-02-17T15:21:21.202Z,97470.78
2023-02-17T15:23:48.717Z,97471.94
2023-02-17T15:26:16.335Z,97472.25
2023-02-17T15:28:43.890Z,97470.47
2023-02-17T15:31:12.942Z,97466.16
2023-02-17T15:33:42.423Z,97463.66
2023-02-17T15:36:13.712Z,97461.81
2023-02-17T15:38:41.464Z,97457.38
2023-02-17T15:41:14.237Z,97451.13
2023-02-17T15:43:41.964Z,97463.78
2023-02-17T15:46:14.926Z,97469.91
2023-02-17T15:48:44.741Z,97464.97
2023-02-17T15:51:13.364Z,97464.34
2023-02-17T15:53:40.933Z,97459.53
2023-02-17T15:56:13.113Z,97458.88
2023-02-17T15:58:40.955Z,97452.75
2023-02-17T16:01:17.292Z,97439.22
2023-02-17T16:03:46.176Z,97444.19
2023-02-17T16:06:13.692Z,97452.09
2023-02-17T16:08:41.222Z,97444.84
2023-02-17T16:11:11.611Z,97439.44
2023-02-17T16:13:39.168Z,97442.72
2023-02-17T16:16:10.525Z,97442.41
2023-02-17T16:18:38.034Z,97445.72
2023-02-17T16:21:07.360Z,97456.47
2023-02-17T16:23:34.917Z,97452.69
2023-02-17T16:26:02.809Z,97449.03
2023-02-17T16:28:30.749Z,97457.44
2023-02-17T16:30:58.306Z,97469.00
2023-02-17T16:33:25.894Z,97473.81
2023-02-17T16:35:53.453Z,97482.22
2023-02-17T16:38:24.486Z,97486.53
2023-02-17T16:40:54.717Z,97496.13
2023-02-17T16:43:25.300Z,97505.16
2023-02-17T16:45:55.498Z,97506.69
2023-02-17T16:48:24.830Z,97499.38
2023-02-17T16:50:53.020Z,97509.63
2023-02-17T16:53:22.102Z,97506.31
2023-02-17T16:55:49.968Z,97503.19
2023-02-17T16:58:19.268Z,97514.91
2023-02-17T17:00:47.936Z,97510.94
2023-02-17T17:03:16.048Z,97520.34
2023-02-17T17:05:43.879Z,97511.91
2023-02-17T17:08:14.236Z,97510.28
2023-02-17T17:10:44.174Z,97502.03
2023-02-17T17:13:12.238Z,97501.03
2023-02-17T17:15:42.814Z,97507.16
2023-02-17T17:18:11.339Z,97504.84
2023-02-17T17:20:41.752Z,97511.59
2023-02-17T17:23:11.853Z,97511.28
2023-02-17T17:25:41.148Z,97519.84
2023-02-17T17:28:14.107Z,97518.31
2023-02-17T17:30:41.778Z,97508.78
2023-02-17T17:33:09.777Z,97504.94
2023-02-17T17:35:37.865Z,97507.75
2023-02-17T17:38:05.545Z,97501.16
2023-02-17T17:40:48.069Z,97503.13
2023-02-17T17:43:18.662Z,97521.66
2023-02-17T17:45:46.254Z,97513.75
2023-02-17T17:48:14.958Z,97508.94
2023-02-17T17:50:43.368Z,97503.50
2023-02-17T17:53:11.001Z,97513.59
2023-02-17T17:55:38.617Z,97512.56
2023-02-17T17:58:06.298Z,97508.44
2023-02-17T18:00:35.442Z,97504.78
2023-02-17T18:03:04.006Z,97509.28
2023-02-17T18:05:32.030Z,97517.41
2023-02-17T18:07:59.666Z,97514.09
2023-02-17T18:10:27.238Z,97523.16
2023-02-17T18:12:54.863Z,97516.56
2023-02-17T18:15:22.593Z,97518.88
2023-02-17T18:17:52.516Z,97524.03
2023-02-17T18:20:20.275Z,97525.97
2023-02-17T18:22:47.779Z,97522.84
2023-02-17T18:25:15.395Z,97522.19
2023-02-17T18:27:44.826Z,97529.13
2023-02-17T18:30:14.836Z,97535.41
2023-02-17T18:32:44.103Z,97524.16
2023-02-17T18:35:13.370Z,97518.53
2023-02-17T18:37:41.247Z,97515.06
2023-02-17T18:40:12.446Z,97519.22
2023-02-17T18:42:40.152Z,97531.75
2023-02-17T18:45:09.900Z,97523.97
2023-02-17T18:47:37.459Z,97517.53
2023-02-17T18:50:05.134Z,97510.94
2023-02-17T18:52:34.145Z,97514.41
2023-02-17T18:55:01.674Z,97509.44
2023-02-17T18:57:29.183Z,97515.88
2023-02-17T18:59:56.783Z,97525.44
2023-02-17T19:02:26.018Z,97533.22
2023-02-17T19:04:54.183Z,97535.53
2023-02-17T19:07:22.451Z,97541.81
2023-02-17T19:09:52.954Z,97542.63
2023-02-17T19:12:20.467Z,97549.25
2023-02-17T19:14:48.456Z,97529.78
2023-02-17T19:17:18.325Z,97541.81
2023-02-17T19:19:46.066Z,97543.28
2023-02-17T19:22:13.632Z,97545.78
2023-02-17T19:24:42.347Z,97537.66
2023-02-17T19:27:11.437Z,97539.19
2023-02-17T19:29:39.064Z,97536.66
2023-02-17T19:32:06.732Z,97544.44
2023-02-17T19:34:35.173Z,97540.63
2023-02-17T19:37:02.791Z,97557.16
2023-02-17T19:39:31.845Z,97567.91
2023-02-17T19:41:59.397Z,97569.25
2023-02-17T19:44:28.281Z,97575.19
2023-02-17T19:46:56.186Z,97569.59
2023-02-17T19:49:23.770Z,97570.91
2023-02-17T19:51:51.423Z,97571.56
2023-02-17T19:54:18.969Z,97575.72
2023-02-17T19:56:48.428Z,97574.06
2023-02-17T19:59:16.004Z,97591.59
2023-02-17T20:01:45.544Z,97593.06
2023-02-17T20:04:14.578Z,97595.53
2023-02-17T20:06:43.550Z,97599.34
2023-02-17T20:09:12.684Z,97611.59
2023-02-17T20:11:40.691Z,97589.78
2023-02-17T20:14:08.360Z,97577.38
2023-02-17T20:16:35.882Z,97572.91
2023-02-17T20:19:05.287Z,97574.38
2023-02-17T20:21:34.218Z,97575.38
2023-02-17T20:24:02.161Z,97583.47
2023-02-17T20:26:31.191Z,97567.28
2023-02-17T20:28:59.293Z,97573.72
2023-02-17T20:31:27.725Z,97568.75
2023-02-17T20:33:55.706Z,97567.59
2023-02-17T20:36:25.232Z,97562.66
2023-02-17T20:38:53.012Z,97562.31
2023-02-17T20:41:22.606Z,97553.69
2023-02-17T20:43:50.963Z,97564.13
2023-02-17T20:46:22.051Z,97552.88
2023-02-17T20:48:50.201Z,97546.94
2023-02-17T20:51:18.105Z,97562.16
2023-02-17T20:53:47.173Z,97567.44
2023-02-17T20:56:15.316Z,97554.53
2023-02-17T20:58:43.550Z,97554.06
2023-02-17T21:01:11.706Z,97558.53
2023-02-17T21:03:39.695Z,97563.00
2023-02-17T21:06:24.698Z,97568.28
2023-02-17T21:08:55.691Z,97570.22
2023-02-17T21:11:23.781Z,97575.38
2023-02-17T21:13:52.050Z,97553.56
2023-02-17T21:16:22.060Z,97575.84
2023-02-17T21:18:49.745Z,97568.44
2023-02-17T21:21:17.730Z,97563.97
2023-02-17T21:23:46.102Z,97574.22
2023-02-17T21:26:15.915Z,97567.44
2023-02-17T21:28:43.800Z,97556.88
2023-02-17T21:31:11.825Z,97565.81
2023-02-17T21:33:42.104Z,97565.94
2023-02-17T21:36:11.237Z,97580.00
2023-02-17T21:38:39.159Z,97573.69
2023-02-17T21:41:10.570Z,97579.31
2023-02-17T21:43:57.294Z,97563.13
2023-02-17T21:46:25.820Z,97577.03
2023-02-17T21:48:53.629Z,97578.69
2023-02-17T21:51:21.292Z,97583.13
2023-02-17T21:53:48.841Z,97583.47
2023-02-17T21:56:16.857Z,97581.81
2023-02-17T21:58:47.624Z,97591.91
2023-02-17T22:01:15.865Z,97587.28
2023-02-17T22:03:43.518Z,97581.50
2023-02-17T22:06:16.021Z,97595.56
2023-02-17T22:08:43.564Z,97595.38
2023-02-17T22:11:15.193Z,97603.97
2023-02-17T22:13:42.844Z,97590.09
2023-02-17T22:16:12.288Z,97612.41
2023-02-17T22:18:40.002Z,97603.31
2023-02-17T22:21:09.277Z,97606.63
2023-02-17T22:23:37.036Z,97614.22
2023-02-17T22:26:09.140Z,97618.00
2023-02-17T22:28:37.102Z,97622.50
2023-02-17T22:31:04.688Z,97624.47
2023-02-17T22:33:34.015Z,97625.44
2023-02-17T22:36:03.452Z,97630.38
2023-02-17T22:38:31.501Z,97621.31
2023-02-17T22:40:59.160Z,97621.63
2023-02-17T22:43:26.953Z,97620.31
2023-02-17T22:45:59.117Z,97624.25
2023-02-17T22:48:26.953Z,97620.28
2023-02-17T22:50:55.867Z,97611.34
2023-02-17T22:53:23.485Z,97626.06
2023-02-17T22:55:54.416Z,97621.91
2023-02-17T22:58:22.220Z,97623.75
2023-02-17T23:00:50.155Z,97623.91
2023-02-17T23:03:18.120Z,97638.09
2023-02-17T23:05:46.853Z,97636.13
2023-02-17T23:08:15.901Z,97648.13
2023-02-17T23:10:44.076Z,97647.66
2023-02-17T23:13:11.980Z,97644.69
2023-02-17T23:15:40.452Z,97652.94
2023-02-17T23:18:09.606Z,97642.03
2023-02-17T23:20:39.080Z,97646.47
2023-02-17T23:23:06.785Z,97643.16
2023-02-17T23:25:35.813Z,97644.63
2023-02-17T23:28:05.901Z,97650.50
2023-02-17T23:30:34.092Z,97649.34
2023-02-17T23:33:01.801Z,97644.38
2023-02-17T23:35:29.499Z,97654.94
2023-02-17T23:37:57.048Z,97654.94
2023-02-17T23:40:24.602Z,97664.66
2023-02-17T23:42:53.549Z,97654.94
2023-02-17T23:45:21.082Z,97665.97
2023-02-17T23:47:48.679Z,97650.94
2023-02-17T23:50:17.319Z,97661.66
2023-02-17T23:52:44.972Z,97659.00
2023-02-17T23:55:12.743Z,97663.13
2023-02-17T23:57:40.275Z,97671.22
